sensor_id;sensor_type;location;lat;lon;timestamp;P1;durP1;ratioP1;P2;durP2;ratioP2
20476;SDS011;10397;50.948;11.092;2023-05-29T00:00:57;6.25;;;1.52;;
20476;SDS011;10397;50.948;11.092;2023-05-29T00:03:29;4.97;;;1.57;;
20476;SDS011;10397;50.948;11.092;2023-05-29T00:06:03;2.92;;;1.70;;
20476;SDS011;10397;50.948;11.092;2023-05-29T00:08:34;4.03;;;1.80;;
20476;SDS011;10397;50.948;11.092;2023-05-29T00:11:05;3.23;;;1.60;;
20476;SDS011;10397;50.948;11.092;2023-05-29T00:13:36;2.72;;;1.45;;
20476;SDS011;10397;50.948;11.092;2023-05-29T00:16:07;5.47;;;1.50;;
20476;SDS011;10397;50.948;11.092;2023-05-29T00:18:38;5.37;;;1.65;;
20476;SDS011;10397;50.948;11.092;2023-05-29T00:21:09;2.77;;;1.30;;
20476;SDS011;10397;50.948;11.092;2023-05-29T00:23:41;4.50;;;1.55;;
20476;SDS011;10397;50.948;11.092;2023-05-29T00:26:11;3.93;;;1.50;;
20476;SDS011;10397;50.948;11.092;2023-05-29T00:28:41;5.10;;;1.70;;
20476;SDS011;10397;50.948;11.092;2023-05-29T00:31:12;2.00;;;1.35;;
20476;SDS011;10397;50.948;11.092;2023-05-29T00:33:43;2.90;;;1.47;;
20476;SDS011;10397;50.948;11.092;2023-05-29T00:36:14;2.70;;;1.55;;
20476;SDS011;10397;50.948;11.092;2023-05-29T00:38:45;3.20;;;1.60;;
20476;SDS011;10397;50.948;11.092;2023-05-29T00:41:16;2.57;;;1.40;;
20476;SDS011;10397;50.948;11.092;2023-05-29T00:43:47;5.58;;;1.80;;
20476;SDS011;10397;50.948;11.092;2023-05-29T00:46:18;2.50;;;1.57;;
20476;SDS011;10397;50.948;11.092;2023-05-29T00:48:49;3.33;;;1.67;;
20476;SDS011;10397;50.948;11.092;2023-05-29T00:51:20;3.42;;;1.92;;
20476;SDS011;10397;50.948;11.092;2023-05-29T00:53:51;3.87;;;1.60;;
20476;SDS011;10397;50.948;11.092;2023-05-29T00:56:22;3.83;;;1.73;;
20476;SDS011;10397;50.948;11.092;2023-05-29T00:58:53;2.87;;;1.50;;
20476;SDS011;10397;50.948;11.092;2023-05-29T01:01:25;5.90;;;1.90;;
20476;SDS011;10397;50.948;11.092;2023-05-29T01:03:56;3.65;;;2.20;;
20476;SDS011;10397;50.948;11.092;2023-05-29T01:06:27;4.60;;;2.10;;
20476;SDS011;10397;50.948;11.092;2023-05-29T01:08:58;3.13;;;1.40;;
20476;SDS011;10397;50.948;11.092;2023-05-29T01:11:34;3.67;;;1.70;;
20476;SDS011;10397;50.948;11.092;2023-05-29T01:14:08;3.80;;;1.50;;
20476;SDS011;10397;50.948;11.092;2023-05-29T01:16:41;3.17;;;1.70;;
20476;SDS011;10397;50.948;11.092;2023-05-29T01:25:21;3.00;;;1.60;;
20476;SDS011;10397;50.948;11.092;2023-05-29T01:27:38;3.53;;;1.97;;
20476;SDS011;10397;50.948;11.092;2023-05-29T01:30:09;4.00;;;1.93;;
20476;SDS011;10397;50.948;11.092;2023-05-29T01:32:40;4.83;;;2.23;;
20476;SDS011;10397;50.948;11.092;2023-05-29T01:35:11;3.70;;;1.80;;
20476;SDS011;10397;50.948;11.092;2023-05-29T01:37:42;5.92;;;2.00;;
20476;SDS011;10397;50.948;11.092;2023-05-29T01:40:13;4.13;;;1.93;;
20476;SDS011;10397;50.948;11.092;2023-05-29T01:42:44;2.93;;;1.70;;
20476;SDS011;10397;50.948;11.092;2023-05-29T01:45:16;3.55;;;2.20;;
20476;SDS011;10397;50.948;11.092;2023-05-29T01:47:46;2.70;;;1.60;;
20476;SDS011;10397;50.948;11.092;2023-05-29T01:50:18;4.17;;;2.60;;
20476;SDS011;10397;50.948;11.092;2023-05-29T01:52:49;7.10;;;2.80;;
20476;SDS011;10397;50.948;11.092;2023-05-29T01:55:19;4.23;;;2.60;;
20476;SDS011;10397;50.948;11.092;2023-05-29T01:57:51;5.62;;;2.15;;
20476;SDS011;10397;50.948;11.092;2023-05-29T02:00:22;2.65;;;1.95;;
20476;SDS011;10397;50.948;11.092;2023-05-29T02:02:53;4.42;;;2.12;;
20476;SDS011;10397;50.948;11.092;2023-05-29T02:05:25;5.80;;;2.10;;
20476;SDS011;10397;50.948;11.092;2023-05-29T02:07:57;4.35;;;2.52;;
20476;SDS011;10397;50.948;11.092;2023-05-29T02:10:28;5.42;;;2.30;;
20476;SDS011;10397;50.948;11.092;2023-05-29T02:12:59;3.72;;;2.52;;
20476;SDS011;10397;50.948;11.092;2023-05-29T02:15:29;3.93;;;2.13;;
20476;SDS011;10397;50.948;11.092;2023-05-29T02:18:01;4.97;;;2.52;;
20476;SDS011;10397;50.948;11.092;2023-05-29T02:20:31;4.67;;;2.37;;
20476;SDS011;10397;50.948;11.092;2023-05-29T02:23:03;3.73;;;2.77;;
20476;SDS011;10397;50.948;11.092;2023-05-29T02:25:34;3.03;;;2.10;;
20476;SDS011;10397;50.948;11.092;2023-05-29T02:28:05;4.65;;;2.65;;
20476;SDS011;10397;50.948;11.092;2023-05-29T02:30:36;3.77;;;2.02;;
20476;SDS011;10397;50.948;11.092;2023-05-29T02:33:08;5.35;;;3.17;;
20476;SDS011;10397;50.948;11.092;2023-05-29T02:35:39;4.47;;;3.17;;
20476;SDS011;10397;50.948;11.092;2023-05-29T02:38:10;4.60;;;2.93;;
20476;SDS011;10397;50.948;11.092;2023-05-29T02:40:41;3.40;;;2.40;;
20476;SDS011;10397;50.948;11.092;2023-05-29T02:43:12;4.85;;;2.90;;
20476;SDS011;10397;50.948;11.092;2023-05-29T02:45:43;3.80;;;2.35;;
20476;SDS011;10397;50.948;11.092;2023-05-29T02:48:15;5.12;;;2.55;;
20476;SDS011;10397;50.948;11.092;2023-05-29T02:50:47;4.22;;;2.35;;
20476;SDS011;10397;50.948;11.092;2023-05-29T02:53:18;3.10;;;2.33;;
20476;SDS011;10397;50.948;11.092;2023-05-29T02:55:49;4.77;;;2.90;;
20476;SDS011;10397;50.948;11.092;2023-05-29T02:58:19;3.42;;;2.27;;
20476;SDS011;10397;50.948;11.092;2023-05-29T03:00:50;4.20;;;1.90;;
20476;SDS011;10397;50.948;11.092;2023-05-29T03:03:21;3.30;;;2.40;;
20476;SDS011;10397;50.948;11.092;2023-05-29T03:05:53;3.83;;;2.53;;
20476;SDS011;10397;50.948;11.092;2023-05-29T03:08:24;4.23;;;3.00;;
20476;SDS011;10397;50.948;11.092;2023-05-29T03:10:54;3.37;;;2.27;;
20476;SDS011;10397;50.948;11.092;2023-05-29T03:13:25;4.45;;;2.33;;
20476;SDS011;10397;50.948;11.092;2023-05-29T03:15:57;4.23;;;2.73;;
20476;SDS011;10397;50.948;11.092;2023-05-29T03:18:28;3.90;;;2.47;;
20476;SDS011;10397;50.948;11.092;2023-05-29T03:20:59;4.10;;;2.42;;
20476;SDS011;10397;50.948;11.092;2023-05-29T03:23:31;4.92;;;2.17;;
20476;SDS011;10397;50.948;11.092;2023-05-29T03:26:03;3.72;;;2.60;;
20476;SDS011;10397;50.948;11.092;2023-05-29T03:28:33;3.70;;;2.27;;
20476;SDS011;10397;50.948;11.092;2023-05-29T03:31:04;2.90;;;2.30;;
20476;SDS011;10397;50.948;11.092;2023-05-29T03:33:38;3.98;;;2.50;;
20476;SDS011;10397;50.948;11.092;2023-05-29T03:36:05;3.17;;;2.20;;
20476;SDS011;10397;50.948;11.092;2023-05-29T03:38:36;4.55;;;2.52;;
20476;SDS011;10397;50.948;11.092;2023-05-29T03:41:08;6.72;;;2.80;;
20476;SDS011;10397;50.948;11.092;2023-05-29T03:43:39;7.12;;;2.72;;
20476;SDS011;10397;50.948;11.092;2023-05-29T03:46:11;4.75;;;3.02;;
20476;SDS011;10397;50.948;11.092;2023-05-29T03:48:43;5.78;;;3.10;;
20476;SDS011;10397;50.948;11.092;2023-05-29T03:51:15;3.37;;;2.62;;
20476;SDS011;10397;50.948;11.092;2023-05-29T03:53:45;7.15;;;2.45;;
20476;SDS011;10397;50.948;11.092;2023-05-29T03:56:17;3.98;;;2.55;;
20476;SDS011;10397;50.948;11.092;2023-05-29T03:58:49;4.72;;;2.80;;
20476;SDS011;10397;50.948;11.092;2023-05-29T04:01:19;4.37;;;2.90;;
20476;SDS011;10397;50.948;11.092;2023-05-29T04:03:50;4.20;;;3.00;;
20476;SDS011;10397;50.948;11.092;2023-05-29T04:06:21;8.20;;;3.17;;
20476;SDS011;10397;50.948;11.092;2023-05-29T04:08:52;4.87;;;2.43;;
20476;SDS011;10397;50.948;11.092;2023-05-29T04:11:23;4.30;;;2.37;;
20476;SDS011;10397;50.948;11.092;2023-05-29T04:13:55;8.85;;;2.85;;
20476;SDS011;10397;50.948;11.092;2023-05-29T04:16:27;4.35;;;2.62;;
20476;SDS011;10397;50.948;11.092;2023-05-29T04:18:57;2.77;;;2.27;;
20476;SDS011;10397;50.948;11.092;2023-05-29T04:21:28;3.90;;;2.47;;
20476;SDS011;10397;50.948;11.092;2023-05-29T04:23:59;4.20;;;2.72;;
20476;SDS011;10397;50.948;11.092;2023-05-29T04:26:30;5.28;;;2.47;;
20476;SDS011;10397;50.948;11.092;2023-05-29T04:29:02;4.00;;;2.47;;
20476;SDS011;10397;50.948;11.092;2023-05-29T04:31:33;4.33;;;2.50;;
20476;SDS011;10397;50.948;11.092;2023-05-29T04:34:07;4.90;;;2.87;;
20476;SDS011;10397;50.948;11.092;2023-05-29T04:36:37;3.70;;;2.20;;
20476;SDS011;10397;50.948;11.092;2023-05-29T04:39:08;4.65;;;3.10;;
20476;SDS011;10397;50.948;11.092;2023-05-29T04:41:40;6.33;;;2.83;;
20476;SDS011;10397;50.948;11.092;2023-05-29T04:44:11;6.22;;;3.45;;
20476;SDS011;10397;50.948;11.092;2023-05-29T04:46:43;6.05;;;3.20;;
20476;SDS011;10397;50.948;11.092;2023-05-29T04:49:14;6.62;;;3.83;;
20476;SDS011;10397;50.948;11.092;2023-05-29T04:51:46;7.72;;;3.45;;
20476;SDS011;10397;50.948;11.092;2023-05-29T04:54:17;5.97;;;3.30;;
20476;SDS011;10397;50.948;11.092;2023-05-29T04:56:48;5.37;;;3.67;;
20476;SDS011;10397;50.948;11.092;2023-05-29T04:59:19;6.78;;;4.25;;
20476;SDS011;10397;50.948;11.092;2023-05-29T05:01:50;4.93;;;3.87;;
20476;SDS011;10397;50.948;11.092;2023-05-29T05:04:22;4.97;;;3.60;;
20476;SDS011;10397;50.948;11.092;2023-05-29T05:06:53;4.72;;;2.95;;
20476;SDS011;10397;50.948;11.092;2023-05-29T05:09:25;4.75;;;3.90;;
20476;SDS011;10397;50.948;11.092;2023-05-29T05:11:56;5.95;;;3.95;;
20476;SDS011;10397;50.948;11.092;2023-05-29T05:14:27;8.30;;;3.95;;
20476;SDS011;10397;50.948;11.092;2023-05-29T05:16:58;8.27;;;3.70;;
20476;SDS011;10397;50.948;11.092;2023-05-29T05:19:29;11.03;;;3.93;;
20476;SDS011;10397;50.948;11.092;2023-05-29T05:22:01;6.33;;;3.80;;
20476;SDS011;10397;50.948;11.092;2023-05-29T05:24:32;6.10;;;3.98;;
20476;SDS011;10397;50.948;11.092;2023-05-29T05:27:03;9.20;;;5.03;;
20476;SDS011;10397;50.948;11.092;2023-05-29T05:29:34;7.95;;;4.20;;
20476;SDS011;10397;50.948;11.092;2023-05-29T05:32:05;5.40;;;3.90;;
20476;SDS011;10397;50.948;11.092;2023-05-29T05:34:36;6.03;;;4.10;;
20476;SDS011;10397;50.948;11.092;2023-05-29T05:37:07;9.60;;;5.20;;
20476;SDS011;10397;50.948;11.092;2023-05-29T05:39:38;8.13;;;4.27;;
20476;SDS011;10397;50.948;11.092;2023-05-29T05:42:09;7.58;;;3.85;;
20476;SDS011;10397;50.948;11.092;2023-05-29T05:44:41;4.08;;;3.67;;
20476;SDS011;10397;50.948;11.092;2023-05-29T05:47:12;10.70;;;4.35;;
20476;SDS011;10397;50.948;11.092;2023-05-29T05:49:43;8.20;;;4.12;;
20476;SDS011;10397;50.948;11.092;2023-05-29T05:52:15;7.62;;;3.95;;
20476;SDS011;10397;50.948;11.092;2023-05-29T05:54:46;6.78;;;4.03;;
20476;SDS011;10397;50.948;11.092;2023-05-29T05:57:17;8.85;;;3.98;;
20476;SDS011;10397;50.948;11.092;2023-05-29T05:59:49;12.10;;;4.13;;
20476;SDS011;10397;50.948;11.092;2023-05-29T06:02:20;6.97;;;3.72;;
20476;SDS011;10397;50.948;11.092;2023-05-29T06:04:52;7.35;;;3.60;;
20476;SDS011;10397;50.948;11.092;2023-05-29T06:07:23;9.05;;;4.72;;
20476;SDS011;10397;50.948;11.092;2023-05-29T06:09:55;15.72;;;4.65;;
20476;SDS011;10397;50.948;11.092;2023-05-29T06:12:27;9.20;;;4.42;;
20476;SDS011;10397;50.948;11.092;2023-05-29T06:14:58;8.87;;;3.57;;
20476;SDS011;10397;50.948;11.092;2023-05-29T06:17:29;11.60;;;4.60;;
20476;SDS011;10397;50.948;11.092;2023-05-29T06:20:00;7.40;;;4.43;;
20476;SDS011;10397;50.948;11.092;2023-05-29T06:22:31;10.73;;;4.63;;
20476;SDS011;10397;50.948;11.092;2023-05-29T06:25:02;7.97;;;3.95;;
20476;SDS011;10397;50.948;11.092;2023-05-29T06:27:33;9.78;;;3.98;;
20476;SDS011;10397;50.948;11.092;2023-05-29T06:30:04;8.33;;;4.00;;
20476;SDS011;10397;50.948;11.092;2023-05-29T06:32:35;10.18;;;5.30;;
20476;SDS011;10397;50.948;11.092;2023-05-29T06:35:07;13.80;;;4.28;;
20476;SDS011;10397;50.948;11.092;2023-05-29T06:37:37;8.93;;;3.90;;
20476;SDS011;10397;50.948;11.092;2023-05-29T06:40:08;8.63;;;4.30;;
20476;SDS011;10397;50.948;11.092;2023-05-29T06:42:39;8.53;;;4.42;;
20476;SDS011;10397;50.948;11.092;2023-05-29T06:45:13;9.53;;;3.30;;
20476;SDS011;10397;50.948;11.092;2023-05-29T06:47:44;5.70;;;3.58;;
20476;SDS011;10397;50.948;11.092;2023-05-29T06:50:16;6.00;;;3.67;;
20476;SDS011;10397;50.948;11.092;2023-05-29T06:52:47;6.20;;;3.65;;
20476;SDS011;10397;50.948;11.092;2023-05-29T06:55:19;8.80;;;4.00;;
20476;SDS011;10397;50.948;11.092;2023-05-29T06:57:49;8.73;;;3.90;;
20476;SDS011;10397;50.948;11.092;2023-05-29T07:00:20;8.20;;;3.73;;
20476;SDS011;10397;50.948;11.092;2023-05-29T07:02:51;10.00;;;3.92;;
20476;SDS011;10397;50.948;11.092;2023-05-29T07:05:22;9.08;;;4.12;;
20476;SDS011;10397;50.948;11.092;2023-05-29T07:07:53;7.35;;;4.37;;
20476;SDS011;10397;50.948;11.092;2023-05-29T07:10:24;8.63;;;3.90;;
20476;SDS011;10397;50.948;11.092;2023-05-29T07:12:55;8.90;;;3.77;;
20476;SDS011;10397;50.948;11.092;2023-05-29T07:15:26;6.30;;;3.70;;
20476;SDS011;10397;50.948;11.092;2023-05-29T07:17:57;9.70;;;4.42;;
20476;SDS011;10397;50.948;11.092;2023-05-29T07:20:28;11.48;;;4.72;;
20476;SDS011;10397;50.948;11.092;2023-05-29T07:23:00;6.72;;;4.20;;
20476;SDS011;10397;50.948;11.092;2023-05-29T07:25:32;5.80;;;3.62;;
20476;SDS011;10397;50.948;11.092;2023-05-29T07:28:03;9.03;;;4.15;;
20476;SDS011;10397;50.948;11.092;2023-05-29T07:30:35;7.12;;;4.15;;
20476;SDS011;10397;50.948;11.092;2023-05-29T07:33:06;8.50;;;3.93;;
20476;SDS011;10397;50.948;11.092;2023-05-29T07:35:37;7.75;;;3.92;;
20476;SDS011;10397;50.948;11.092;2023-05-29T07:38:08;7.08;;;3.87;;
20476;SDS011;10397;50.948;11.092;2023-05-29T07:40:39;8.35;;;4.00;;
20476;SDS011;10397;50.948;11.092;2023-05-29T07:43:10;9.03;;;3.60;;
20476;SDS011;10397;50.948;11.092;2023-05-29T07:45:42;9.03;;;4.05;;
20476;SDS011;10397;50.948;11.092;2023-05-29T07:48:14;6.83;;;3.37;;
20476;SDS011;10397;50.948;11.092;2023-05-29T07:50:45;6.72;;;3.77;;
20476;SDS011;10397;50.948;11.092;2023-05-29T07:53:16;7.67;;;4.15;;
20476;SDS011;10397;50.948;11.092;2023-05-29T07:55:48;10.13;;;3.87;;
20476;SDS011;10397;50.948;11.092;2023-05-29T07:58:20;5.92;;;3.50;;
20476;SDS011;10397;50.948;11.092;2023-05-29T08:00:51;8.00;;;3.70;;
20476;SDS011;10397;50.948;11.092;2023-05-29T08:03:22;7.08;;;4.12;;
20476;SDS011;10397;50.948;11.092;2023-05-29T08:05:53;10.70;;;3.72;;
20476;SDS011;10397;50.948;11.092;2023-05-29T08:08:24;6.60;;;3.87;;
20476;SDS011;10397;50.948;11.092;2023-05-29T08:10:55;6.90;;;4.47;;
20476;SDS011;10397;50.948;11.092;2023-05-29T08:13:26;7.78;;;3.65;;
20476;SDS011;10397;50.948;11.092;2023-05-29T08:15:57;8.43;;;4.33;;
20476;SDS011;10397;50.948;11.092;2023-05-29T08:18:29;9.28;;;3.70;;
20476;SDS011;10397;50.948;11.092;2023-05-29T08:20:59;7.55;;;3.75;;
20476;SDS011;10397;50.948;11.092;2023-05-29T08:23:31;6.15;;;3.52;;
20476;SDS011;10397;50.948;11.092;2023-05-29T08:26:02;6.22;;;3.15;;
20476;SDS011;10397;50.948;11.092;2023-05-29T08:28:33;7.55;;;3.92;;
20476;SDS011;10397;50.948;11.092;2023-05-29T08:31:05;4.65;;;3.40;;
20476;SDS011;10397;50.948;11.092;2023-05-29T08:33:36;5.83;;;3.62;;
20476;SDS011;10397;50.948;11.092;2023-05-29T08:36:08;9.38;;;3.17;;
20476;SDS011;10397;50.948;11.092;2023-05-29T08:38:38;8.77;;;3.40;;
20476;SDS011;10397;50.948;11.092;2023-05-29T08:41:10;5.10;;;3.00;;
20476;SDS011;10397;50.948;11.092;2023-05-29T08:43:40;6.42;;;3.45;;
20476;SDS011;10397;50.948;11.092;2023-05-29T08:46:11;9.58;;;3.72;;
20476;SDS011;10397;50.948;11.092;2023-05-29T08:48:43;6.22;;;3.52;;
20476;SDS011;10397;50.948;11.092;2023-05-29T08:51:14;6.87;;;3.20;;
20476;SDS011;10397;50.948;11.092;2023-05-29T08:53:46;9.68;;;4.47;;
20476;SDS011;10397;50.948;11.092;2023-05-29T08:56:15;4.97;;;3.13;;
20476;SDS011;10397;50.948;11.092;2023-05-29T08:58:46;7.03;;;3.67;;
20476;SDS011;10397;50.948;11.092;2023-05-29T09:01:17;6.67;;;4.03;;
20476;SDS011;10397;50.948;11.092;2023-05-29T09:03:49;7.67;;;3.22;;
20476;SDS011;10397;50.948;11.092;2023-05-29T09:06:21;5.75;;;3.58;;
20476;SDS011;10397;50.948;11.092;2023-05-29T09:08:51;7.53;;;3.45;;
20476;SDS011;10397;50.948;11.092;2023-05-29T09:11:21;6.77;;;2.90;;
20476;SDS011;10397;50.948;11.092;2023-05-29T09:13:52;6.92;;;3.25;;
20476;SDS011;10397;50.948;11.092;2023-05-29T09:16:23;7.25;;;3.72;;
20476;SDS011;10397;50.948;11.092;2023-05-29T09:19:04;5.33;;;2.83;;
20476;SDS011;10397;50.948;11.092;2023-05-29T09:21:37;9.23;;;3.37;;
20476;SDS011;10397;50.948;11.092;2023-05-29T09:24:08;6.08;;;2.90;;
20476;SDS011;10397;50.948;11.092;2023-05-29T09:26:42;6.97;;;2.62;;
20476;SDS011;10397;50.948;11.092;2023-05-29T09:29:10;5.12;;;2.87;;
20476;SDS011;10397;50.948;11.092;2023-05-29T09:31:45;5.03;;;2.35;;
20476;SDS011;10397;50.948;11.092;2023-05-29T09:34:15;4.73;;;2.97;;
20476;SDS011;10397;50.948;11.092;2023-05-29T09:36:46;5.50;;;3.20;;
20476;SDS011;10397;50.948;11.092;2023-05-29T09:39:17;6.37;;;3.00;;
20476;SDS011;10397;50.948;11.092;2023-05-29T09:41:48;5.33;;;3.00;;
20476;SDS011;10397;50.948;11.092;2023-05-29T09:44:19;6.40;;;2.57;;
20476;SDS011;10397;50.948;11.092;2023-05-29T09:46:50;4.93;;;2.47;;
20476;SDS011;10397;50.948;11.092;2023-05-29T09:49:22;5.45;;;2.77;;
20476;SDS011;10397;50.948;11.092;2023-05-29T09:51:54;10.67;;;3.13;;
20476;SDS011;10397;50.948;11.092;2023-05-29T09:54:26;5.33;;;2.70;;
20476;SDS011;10397;50.948;11.092;2023-05-29T09:56:56;7.15;;;3.35;;
20476;SDS011;10397;50.948;11.092;2023-05-29T09:59:26;3.83;;;2.07;;
20476;SDS011;10397;50.948;11.092;2023-05-29T10:02:01;6.85;;;2.75;;
20476;SDS011;10397;50.948;11.092;2023-05-29T10:04:31;5.70;;;2.57;;
20476;SDS011;10397;50.948;11.092;2023-05-29T10:07:05;6.08;;;2.20;;
20476;SDS011;10397;50.948;11.092;2023-05-29T10:09:37;7.47;;;2.30;;
20476;SDS011;10397;50.948;11.092;2023-05-29T10:12:06;3.33;;;2.00;;
20476;SDS011;10397;50.948;11.092;2023-05-29T10:14:37;5.00;;;2.40;;
20476;SDS011;10397;50.948;11.092;2023-05-29T10:17:08;5.83;;;2.22;;
20476;SDS011;10397;50.948;11.092;2023-05-29T10:19:39;7.42;;;2.17;;
20476;SDS011;10397;50.948;11.092;2023-05-29T10:22:10;5.78;;;2.37;;
20476;SDS011;10397;50.948;11.092;2023-05-29T10:24:42;6.67;;;2.60;;
20476;SDS011;10397;50.948;11.092;2023-05-29T10:27:13;6.12;;;2.40;;
20476;SDS011;10397;50.948;11.092;2023-05-29T10:32:56;3.63;;;2.37;;
20476;SDS011;10397;50.948;11.092;2023-05-29T10:35:25;10.03;;;2.73;;
20476;SDS011;10397;50.948;11.092;2023-05-29T10:38:11;5.72;;;2.20;;
20476;SDS011;10397;50.948;11.092;2023-05-29T10:40:33;6.03;;;2.77;;
20476;SDS011;10397;50.948;11.092;2023-05-29T10:43:04;3.62;;;2.10;;
20476;SDS011;10397;50.948;11.092;2023-05-29T10:50:41;6.85;;;2.60;;
20476;SDS011;10397;50.948;11.092;2023-05-29T10:53:19;3.70;;;1.93;;
20476;SDS011;10397;50.948;11.092;2023-05-29T10:55:45;6.03;;;2.67;;
20476;SDS011;10397;50.948;11.092;2023-05-29T10:58:20;6.25;;;2.45;;
20476;SDS011;10397;50.948;11.092;2023-05-29T11:00:49;3.87;;;2.10;;
20476;SDS011;10397;50.948;11.092;2023-05-29T11:03:21;3.75;;;2.42;;
20476;SDS011;10397;50.948;11.092;2023-05-29T11:06:01;6.90;;;2.42;;
20476;SDS011;10397;50.948;11.092;2023-05-29T11:08:34;5.93;;;2.90;;
20476;SDS011;10397;50.948;11.092;2023-05-29T11:11:34;5.83;;;2.23;;
20476;SDS011;10397;50.948;11.092;2023-05-29T11:13:51;3.98;;;2.42;;
20476;SDS011;10397;50.948;11.092;2023-05-29T11:18:57;3.57;;;2.10;;
20476;SDS011;10397;50.948;11.092;2023-05-29T11:21:49;5.78;;;2.70;;
20476;SDS011;10397;50.948;11.092;2023-05-29T11:24:22;4.37;;;2.40;;
20476;SDS011;10397;50.948;11.092;2023-05-29T11:26:53;3.80;;;2.33;;
20476;SDS011;10397;50.948;11.092;2023-05-29T11:29:24;4.28;;;2.35;;
20476;SDS011;10397;50.948;11.092;2023-05-29T11:31:55;4.87;;;2.52;;
20476;SDS011;10397;50.948;11.092;2023-05-29T11:34:25;4.57;;;2.13;;
20476;SDS011;10397;50.948;11.092;2023-05-29T11:37:00;5.42;;;2.50;;
20476;SDS011;10397;50.948;11.092;2023-05-29T11:39:27;3.85;;;2.10;;
20476;SDS011;10397;50.948;11.092;2023-05-29T11:41:58;5.93;;;3.00;;
20476;SDS011;10397;50.948;11.092;2023-05-29T11:44:29;4.55;;;2.10;;
20476;SDS011;10397;50.948;11.092;2023-05-29T11:47:01;4.15;;;1.92;;
20476;SDS011;10397;50.948;11.092;2023-05-29T11:49:32;6.37;;;2.43;;
20476;SDS011;10397;50.948;11.092;2023-05-29T11:52:06;6.33;;;2.25;;
20476;SDS011;10397;50.948;11.092;2023-05-29T11:54:35;7.40;;;2.43;;
20476;SDS011;10397;50.948;11.092;2023-05-29T11:57:06;4.87;;;1.90;;
20476;SDS011;10397;50.948;11.092;2023-05-29T11:59:37;6.35;;;2.50;;
20476;SDS011;10397;50.948;11.092;2023-05-29T12:02:08;5.72;;;2.47;;
20476;SDS011;10397;50.948;11.092;2023-05-29T12:04:39;5.33;;;2.83;;
20476;SDS011;10397;50.948;11.092;2023-05-29T12:07:17;3.60;;;2.05;;
20476;SDS011;10397;50.948;11.092;2023-05-29T12:09:50;3.37;;;2.33;;
20476;SDS011;10397;50.948;11.092;2023-05-29T12:12:21;4.27;;;2.27;;
20476;SDS011;10397;50.948;11.092;2023-05-29T12:14:52;5.53;;;2.22;;
20476;SDS011;10397;50.948;11.092;2023-05-29T12:17:23;5.30;;;2.17;;
20476;SDS011;10397;50.948;11.092;2023-05-29T12:19:54;5.08;;;2.08;;
20476;SDS011;10397;50.948;11.092;2023-05-29T12:22:35;8.17;;;2.30;;
20476;SDS011;10397;50.948;11.092;2023-05-29T12:27:42;5.23;;;2.10;;
20476;SDS011;10397;50.948;11.092;2023-05-29T12:30:13;8.80;;;2.52;;
20476;SDS011;10397;50.948;11.092;2023-05-29T12:32:44;4.20;;;2.03;;
20476;SDS011;10397;50.948;11.092;2023-05-29T12:35:25;5.87;;;2.17;;
20476;SDS011;10397;50.948;11.092;2023-05-29T12:37:56;3.23;;;1.80;;
20476;SDS011;10397;50.948;11.092;2023-05-29T12:40:30;4.60;;;1.90;;
20476;SDS011;10397;50.948;11.092;2023-05-29T12:43:00;4.93;;;2.20;;
20476;SDS011;10397;50.948;11.092;2023-05-29T12:45:31;4.70;;;2.42;;
20476;SDS011;10397;50.948;11.092;2023-05-29T12:48:02;7.12;;;1.92;;
20476;SDS011;10397;50.948;11.092;2023-05-29T12:50:33;3.33;;;1.60;;
20476;SDS011;10397;50.948;11.092;2023-05-29T12:53:09;5.00;;;2.33;;
20476;SDS011;10397;50.948;11.092;2023-05-29T12:55:43;3.43;;;2.10;;
20476;SDS011;10397;50.948;11.092;2023-05-29T12:58:13;4.30;;;1.70;;
20476;SDS011;10397;50.948;11.092;2023-05-29T13:00:43;5.42;;;2.00;;
20476;SDS011;10397;50.948;11.092;2023-05-29T13:03:14;2.75;;;1.82;;
20476;SDS011;10397;50.948;11.092;2023-05-29T13:05:45;6.67;;;2.33;;
20476;SDS011;10397;50.948;11.092;2023-05-29T13:08:17;4.92;;;2.35;;
20476;SDS011;10397;50.948;11.092;2023-05-29T13:10:48;4.95;;;1.77;;
20476;SDS011;10397;50.948;11.092;2023-05-29T13:13:20;3.65;;;1.72;;
20476;SDS011;10397;50.948;11.092;2023-05-29T13:15:51;6.60;;;1.60;;
20476;SDS011;10397;50.948;11.092;2023-05-29T13:18:22;2.60;;;1.97;;
20476;SDS011;10397;50.948;11.092;2023-05-29T13:20:54;3.15;;;1.90;;
20476;SDS011;10397;50.948;11.092;2023-05-29T13:23:25;3.75;;;1.82;;
20476;SDS011;10397;50.948;11.092;2023-05-29T13:25:57;4.42;;;2.00;;
20476;SDS011;10397;50.948;11.092;2023-05-29T13:28:29;4.47;;;2.35;;
20476;SDS011;10397;50.948;11.092;2023-05-29T13:31:01;3.47;;;2.08;;
20476;SDS011;10397;50.948;11.092;2023-05-29T13:33:32;4.53;;;2.25;;
20476;SDS011;10397;50.948;11.092;2023-05-29T13:36:04;3.35;;;1.70;;
20476;SDS011;10397;50.948;11.092;2023-05-29T13:38:35;4.30;;;2.25;;
20476;SDS011;10397;50.948;11.092;2023-05-29T13:41:07;4.78;;;2.20;;
20476;SDS011;10397;50.948;11.092;2023-05-29T13:43:38;2.75;;;1.70;;
20476;SDS011;10397;50.948;11.092;2023-05-29T13:46:10;2.40;;;1.40;;
20476;SDS011;10397;50.948;11.092;2023-05-29T13:48:41;5.22;;;2.02;;
20476;SDS011;10397;50.948;11.092;2023-05-29T13:51:13;6.83;;;1.92;;
20476;SDS011;10397;50.948;11.092;2023-05-29T13:53:44;4.92;;;1.80;;
20476;SDS011;10397;50.948;11.092;2023-05-29T13:56:16;3.20;;;1.70;;
20476;SDS011;10397;50.948;11.092;2023-05-29T13:58:48;5.10;;;2.27;;
20476;SDS011;10397;50.948;11.092;2023-05-29T14:01:20;4.17;;;1.60;;
20476;SDS011;10397;50.948;11.092;2023-05-29T14:03:50;3.33;;;1.90;;
20476;SDS011;10397;50.948;11.092;2023-05-29T14:06:22;3.33;;;1.77;;
20476;SDS011;10397;50.948;11.092;2023-05-29T14:08:53;4.78;;;2.05;;
20476;SDS011;10397;50.948;11.092;2023-05-29T14:11:25;3.30;;;1.60;;
20476;SDS011;10397;50.948;11.092;2023-05-29T14:13:56;5.65;;;1.90;;
20476;SDS011;10397;50.948;11.092;2023-05-29T14:16:28;2.90;;;1.57;;
20476;SDS011;10397;50.948;11.092;2023-05-29T14:18:59;3.72;;;2.08;;
20476;SDS011;10397;50.948;11.092;2023-05-29T14:21:29;3.45;;;2.30;;
20476;SDS011;10397;50.948;11.092;2023-05-29T14:24:01;3.25;;;1.72;;
20476;SDS011;10397;50.948;11.092;2023-05-29T14:26:33;5.75;;;2.02;;
20476;SDS011;10397;50.948;11.092;2023-05-29T14:29:04;4.53;;;2.40;;
20476;SDS011;10397;50.948;11.092;2023-05-29T14:31:35;5.05;;;1.77;;
20476;SDS011;10397;50.948;11.092;2023-05-29T14:34:07;4.70;;;2.00;;
20476;SDS011;10397;50.948;11.092;2023-05-29T14:36:38;4.20;;;1.92;;
20476;SDS011;10397;50.948;11.092;2023-05-29T14:39:08;5.13;;;1.93;;
20476;SDS011;10397;50.948;11.092;2023-05-29T14:41:40;5.05;;;1.82;;
20476;SDS011;10397;50.948;11.092;2023-05-29T14:44:13;3.72;;;2.17;;
20476;SDS011;10397;50.948;11.092;2023-05-29T14:46:42;4.53;;;2.37;;
20476;SDS011;10397;50.948;11.092;2023-05-29T14:49:13;5.45;;;1.80;;
20476;SDS011;10397;50.948;11.092;2023-05-29T14:51:45;4.53;;;2.20;;
20476;SDS011;10397;50.948;11.092;2023-05-29T14:54:16;6.67;;;2.17;;
20476;SDS011;10397;50.948;11.092;2023-05-29T14:56:47;5.13;;;1.90;;
20476;SDS011;10397;50.948;11.092;2023-05-29T14:59:18;5.83;;;2.20;;
20476;SDS011;10397;50.948;11.092;2023-05-29T15:01:50;3.33;;;1.87;;
20476;SDS011;10397;50.948;11.092;2023-05-29T15:04:21;5.42;;;2.22;;
20476;SDS011;10397;50.948;11.092;2023-05-29T15:06:53;4.17;;;2.08;;
20476;SDS011;10397;50.948;11.092;2023-05-29T15:09:24;5.45;;;1.62;;
20476;SDS011;10397;50.948;11.092;2023-05-29T15:11:56;3.22;;;1.80;;
20476;SDS011;10397;50.948;11.092;2023-05-29T15:14:27;4.33;;;2.20;;
20476;SDS011;10397;50.948;11.092;2023-05-29T15:16:58;3.22;;;1.80;;